Time;durP1;ratioP1;P1;durP2;ratioP2;P2;SDS_P1;SDS_P2;PMS_P1;PMS_P2;Temp;Humidity;BMP_temperature;BMP_pressure;BME280_temperature;BME280_humidity;BME280_pressure;Samples;Min_cycle;Max_cycle;Signal;HPM_P1;HPM_P2
2023/07/30 00:02:18;;;;;;;4.00;1.70;;;;;;;;;;110437;1277;22099;-75
2023/07/30 00:04:45;;;;;;;3.10;1.40;;;;;;;;;;110316;1277;22077;-76
2023/07/30 00:07:12;;;;;;;3.70;1.70;;;;;;;;;;110534;1259;22121;-75
2023/07/30 00:09:39;;;;;;;4.50;1.40;;;;;;;;;;110408;1277;22162;-75
2023/07/30 00:12:07;;;;;;;5.80;1.40;;;;;;;;;;110184;1277;22555;-76
2023/07/30 00:14:34;;;;;;;4.90;1.50;;;;;;;;;;110301;1277;22820;-75
2023/07/30 00:17:01;;;;;;;5.70;1.70;;;;;;;;;;110333;1259;22236;-75
2023/07/30 00:19:28;;;;;;;4.00;1.60;;;;;;;;;;110314;1277;22179;-75
2023/07/30 00:21:56;;;;;;;5.10;1.50;;;;;;;;;;110176;1277;22110;-75
2023/07/30 00:24:23;;;;;;;4.40;1.70;;;;;;;;;;110181;1277;22085;-75
2023/07/30 00:26:50;;;;;;;3.30;1.80;;;;;;;;;;110450;1254;22125;-75
2023/07/30 00:29:19;;;;;;;4.00;1.90;;;;;;;;;;110295;1277;22117;-75
2023/07/30 00:31:46;;;;;;;5.40;1.80;;;;;;;;;;110296;1277;22127;-75
2023/07/30 00:34:12;;;;;;;4.00;1.60;;;;;;;;;;110277;1277;23048;-75
2023/07/30 00:36:39;;;;;;;4.30;1.80;;;;;;;;;;110157;1278;22147;-76
2023/07/30 00:39:06;;;;;;;4.60;1.70;;;;;;;;;;110585;1261;22158;-76
2023/07/30 00:41:33;;;;;;;5.00;1.80;;;;;;;;;;110340;1278;22113;-74
2023/07/30 00:44:00;;;;;;;4.20;1.70;;;;;;;;;;110290;1278;22084;-75
2023/07/30 00:46:27;;;;;;;4.40;1.70;;;;;;;;;;110302;1278;22119;-75
2023/07/30 00:48:54;;;;;;;3.60;1.80;;;;;;;;;;110525;1260;22857;-75
2023/07/30 00:51:21;;;;;;;4.20;2.00;;;;;;;;;;110252;1278;22097;-75
2023/07/30 00:53:48;;;;;;;4.90;1.80;;;;;;;;;;110323;1278;22596;-75
2023/07/30 00:56:15;;;;;;;5.90;1.90;;;;;;;;;;110311;1277;22113;-75
2023/07/30 00:58:44;;;;;;;3.70;1.80;;;;;;;;;;110640;1259;22132;-75
2023/07/30 01:01:12;;;;;;;5.90;2.00;;;;;;;;;;110197;1277;22070;-75
2023/07/30 01:03:38;;;;;;;4.70;1.90;;;;;;;;;;110293;1277;22206;-75
2023/07/30 01:06:05;;;;;;;4.80;1.90;;;;;;;;;;110422;1277;22951;-75
2023/07/30 01:08:32;;;;;;;4.60;1.80;;;;;;;;;;110469;1261;22767;-75
2023/07/30 01:10:59;;;;;;;4.20;1.80;;;;;;;;;;110322;1277;21807;-75
2023/07/30 01:13:27;;;;;;;6.10;1.80;;;;;;;;;;110452;1277;22108;-75
2023/07/30 01:15:54;;;;;;;4.40;1.90;;;;;;;;;;110246;1277;22258;-75
2023/07/30 01:18:21;;;;;;;4.20;1.80;;;;;;;;;;110369;1260;22163;-75
2023/07/30 01:20:47;;;;;;;5.90;1.90;;;;;;;;;;110293;1277;22197;-75
2023/07/30 01:23:14;;;;;;;5.60;1.70;;;;;;;;;;110356;1278;22340;-74
2023/07/30 01:25:42;;;;;;;5.60;2.10;;;;;;;;;;110376;1277;22120;-75
2023/07/30 01:28:11;;;;;;;6.10;2.00;;;;;;;;;;110410;1254;22226;-75
2023/07/30 01:30:40;;;;;;;8.10;2.30;;;;;;;;;;110368;1277;22106;-75
2023/07/30 01:33:07;;;;;;;9.30;2.30;;;;;;;;;;110435;1266;22100;-75
2023/07/30 01:35:35;;;;;;;8.50;2.70;;;;;;;;;;110352;1278;22172;-75
2023/07/30 01:38:03;;;;;;;12.90;2.70;;;;;;;;;;110370;1254;23195;-75
2023/07/30 01:40:30;;;;;;;9.80;2.40;;;;;;;;;;110245;1269;22099;-74
2023/07/30 01:42:57;;;;;;;10.50;2.40;;;;;;;;;;110275;1278;22176;-74
2023/07/30 01:45:24;;;;;;;10.60;2.30;;;;;;;;;;110276;1278;22181;-74
2023/07/30 01:47:51;;;;;;;8.90;2.20;;;;;;;;;;110296;1278;22170;-75
2023/07/30 01:50:18;;;;;;;9.90;2.30;;;;;;;;;;110751;1258;22018;-74
2023/07/30 01:52:44;;;;;;;8.20;2.00;;;;;;;;;;110335;1278;22085;-75
2023/07/30 01:55:12;;;;;;;11.80;2.70;;;;;;;;;;110299;1278;22106;-74
2023/07/30 01:57:40;;;;;;;9.70;2.60;;;;;;;;;;110358;1278;22084;-75
2023/07/30 02:00:07;;;;;;;9.30;2.50;;;;;;;;;;110609;1259;22174;-74
2023/07/30 02:02:35;;;;;;;7.50;2.00;;;;;;;;;;110292;1278;22101;-75
2023/07/30 02:05:02;;;;;;;11.00;2.50;;;;;;;;;;110283;1278;22089;-74
2023/07/30 02:07:30;;;;;;;12.90;2.30;;;;;;;;;;110282;1278;22791;-75
2023/07/30 02:09:56;;;;;;;7.60;2.20;;;;;;;;;;110543;1257;22738;-75
2023/07/30 02:12:24;;;;;;;9.20;2.20;;;;;;;;;;110261;1273;22120;-74
2023/07/30 02:14:51;;;;;;;9.10;2.10;;;;;;;;;;110288;1278;22992;-75
2023/07/30 02:17:17;;;;;;;11.00;2.20;;;;;;;;;;110314;1278;22749;-74
2023/07/30 02:19:45;;;;;;;8.90;1.80;;;;;;;;;;110430;1260;22886;-75
2023/07/30 02:22:11;;;;;;;8.10;2.60;;;;;;;;;;110375;1278;22115;-75
2023/07/30 02:24:38;;;;;;;9.20;2.40;;;;;;;;;;110215;1278;22862;-75
2023/07/30 02:27:05;;;;;;;7.50;1.90;;;;;;;;;;110295;1278;22207;-74
2023/07/30 02:29:32;;;;;;;6.20;2.10;;;;;;;;;;110405;1259;22137;-75
2023/07/30 02:31:59;;;;;;;5.90;1.80;;;;;;;;;;110195;1278;22101;-74
2023/07/30 02:34:26;;;;;;;9.40;1.90;;;;;;;;;;110296;1273;22093;-74
2023/07/30 02:36:53;;;;;;;6.00;1.80;;;;;;;;;;110222;1278;22101;-74
2023/07/30 02:39:21;;;;;;;5.10;2.00;;;;;;;;;;110310;1257;22163;-75
2023/07/30 02:41:48;;;;;;;7.10;2.10;;;;;;;;;;110211;1276;22146;-75
2023/07/30 02:44:16;;;;;;;6.90;2.30;;;;;;;;;;110328;1278;22093;-75
2023/07/30 02:46:43;;;;;;;6.20;2.50;;;;;;;;;;110350;1278;22126;-75
2023/07/30 02:49:11;;;;;;;5.10;1.90;;;;;;;;;;110230;1278;22161;-75
2023/07/30 02:51:38;;;;;;;7.70;1.70;;;;;;;;;;110560;1256;22110;-76
2023/07/30 02:54:07;;;;;;;5.40;1.70;;;;;;;;;;110159;1276;22113;-75
2023/07/30 02:56:34;;;;;;;9.80;2.40;;;;;;;;;;110194;1278;22108;-75
2023/07/30 02:59:02;;;;;;;6.80;2.00;;;;;;;;;;110305;1278;22111;-76
2023/07/30 03:01:30;;;;;;;6.30;2.10;;;;;;;;;;110260;1257;22119;-75
2023/07/30 03:03:58;;;;;;;6.90;1.80;;;;;;;;;;110236;1278;22122;-75
2023/07/30 03:06:26;;;;;;;6.30;1.80;;;;;;;;;;110193;1278;22562;-75
2023/07/30 03:08:54;;;;;;;7.80;1.90;;;;;;;;;;110338;1278;22169;-75
2023/07/30 03:11:22;;;;;;;8.40;2.10;;;;;;;;;;110337;1260;22111;-75
2023/07/30 03:13:50;;;;;;;7.30;1.90;;;;;;;;;;110359;1278;22080;-75
2023/07/30 03:16:17;;;;;;;5.10;1.60;;;;;;;;;;110219;1278;22095;-75
2023/07/30 03:18:45;;;;;;;5.30;2.00;;;;;;;;;;110197;1278;22095;-74
2023/07/30 03:21:12;;;;;;;6.30;2.00;;;;;;;;;;110337;1257;22112;-75
2023/07/30 03:23:41;;;;;;;6.90;1.80;;;;;;;;;;110335;1278;22150;-75
2023/07/30 03:26:08;;;;;;;8.10;1.80;;;;;;;;;;110204;1278;22963;-75
2023/07/30 03:28:36;;;;;;;7.90;2.10;;;;;;;;;;110188;1278;22098;-75
2023/07/30 03:31:03;;;;;;;9.10;2.00;;;;;;;;;;110429;1258;22193;-75
2023/07/30 03:33:31;;;;;;;6.60;1.70;;;;;;;;;;110189;1278;22111;-75
2023/07/30 03:35:58;;;;;;;7.40;2.10;;;;;;;;;;110207;1278;22765;-75
2023/07/30 03:38:27;;;;;;;7.50;1.70;;;;;;;;;;110282;1279;22855;-75
2023/07/30 03:40:57;;;;;;;6.40;1.90;;;;;;;;;;110145;1262;22154;-75
2023/07/30 03:43:26;;;;;;;6.20;1.80;;;;;;;;;;110184;1279;22045;-75
2023/07/30 03:45:55;;;;;;;10.10;2.20;;;;;;;;;;110153;1273;22845;-75
2023/07/30 03:48:24;;;;;;;8.70;1.90;;;;;;;;;;110294;1279;22812;-75
2023/07/30 03:50:54;;;;;;;6.60;1.80;;;;;;;;;;110216;1256;22217;-75
2023/07/30 03:53:23;;;;;;;8.80;2.10;;;;;;;;;;110192;1279;22133;-75
2023/07/30 03:55:52;;;;;;;7.40;1.70;;;;;;;;;;110207;1279;22110;-75
2023/07/30 03:58:21;;;;;;;7.80;1.80;;;;;;;;;;110282;1279;22113;-75
2023/07/30 04:00:50;;;;;;;8.80;1.70;;;;;;;;;;110257;1279;22512;-75
2023/07/30 04:03:19;;;;;;;9.50;2.10;;;;;;;;;;110157;1262;22109;-76
2023/07/30 04:05:48;;;;;;;8.40;2.00;;;;;;;;;;110173;1279;23340;-75
2023/07/30 04:08:18;;;;;;;7.10;2.10;;;;;;;;;;110201;1271;22728;-74
2023/07/30 04:10:47;;;;;;;7.70;1.90;;;;;;;;;;110205;1279;22138;-75
2023/07/30 04:13:17;;;;;;;8.00;2.10;;;;;;;;;;110400;1272;22089;-75
2023/07/30 04:15:48;;;;;;;7.30;1.80;;;;;;;;;;110131;1279;22807;-74
2023/07/30 04:18:19;;;;;;;7.10;2.10;;;;;;;;;;110165;1279;22104;-74
2023/07/30 04:20:48;;;;;;;6.10;2.30;;;;;;;;;;110196;1279;22098;-75
2023/07/30 04:23:17;;;;;;;7.10;1.90;;;;;;;;;;110483;1271;22139;-75
2023/07/30 04:25:46;;;;;;;7.40;2.00;;;;;;;;;;110186;1279;22111;-75
2023/07/30 04:28:17;;;;;;;5.70;2.00;;;;;;;;;;110143;1279;22102;-74
2023/07/30 04:30:49;;;;;;;8.70;2.00;;;;;;;;;;110161;1279;22121;-75
2023/07/30 04:33:19;;;;;;;8.50;2.00;;;;;;;;;;110392;1273;22136;-74
2023/07/30 04:35:48;;;;;;;4.90;1.60;;;;;;;;;;110175;1279;22115;-75
2023/07/30 04:45:18;;;;;;;6.50;1.90;;;;;;;;;;104732;1286;544819;-81
2023/07/30 04:47:47;;;;;;;6.10;1.90;;;;;;;;;;106101;1287;22544;-79
2023/07/30 04:50:15;;;;;;;7.10;1.80;;;;;;;;;;106029;1285;22500;-81
2023/07/30 04:52:42;;;;;;;7.10;1.80;;;;;;;;;;106094;1287;26622;-76
2023/07/30 04:55:09;;;;;;;5.60;1.80;;;;;;;;;;106292;1269;25332;-80
2023/07/30 04:57:36;;;;;;;6.50;2.10;;;;;;;;;;106152;1287;24299;-74
2023/07/30 05:00:03;;;;;;;6.00;2.00;;;;;;;;;;103933;1284;3319989;-76
2023/07/30 05:02:31;;;;;;;5.50;2.00;;;;;;;;;;106334;1285;22642;-77
2023/07/30 05:04:58;;;;;;;4.70;2.00;;;;;;;;;;106274;1269;22755;-81
2023/07/30 05:07:25;;;;;;;7.10;2.10;;;;;;;;;;106117;1287;25331;-79
2023/07/30 05:09:51;;;;;;;5.40;2.00;;;;;;;;;;106015;1287;25226;-75
2023/07/30 05:12:18;;;;;;;7.70;1.90;;;;;;;;;;106071;1287;22547;-81
2023/07/30 05:14:45;;;;;;;6.60;2.00;;;;;;;;;;106102;1285;25188;-75
2023/07/30 05:17:12;;;;;;;6.20;2.20;;;;;;;;;;106308;1285;22531;-76
2023/07/30 05:19:39;;;;;;;6.70;2.30;;;;;;;;;;106395;1284;22536;-80
2023/07/30 05:22:07;;;;;;;7.60;2.30;;;;;;;;;;106377;1285;22524;-77
2023/07/30 05:24:36;;;;;;;7.90;2.30;;;;;;;;;;106437;1282;25405;-74
2023/07/30 05:27:03;;;;;;;7.40;2.30;;;;;;;;;;106298;1269;22535;-76
2023/07/30 05:29:30;;;;;;;7.20;1.90;;;;;;;;;;106384;1285;25393;-74
2023/07/30 05:31:57;;;;;;;4.40;1.80;;;;;;;;;;106352;1285;24198;-81
2023/07/30 05:34:23;;;;;;;7.60;2.30;;;;;;;;;;106136;1285;24358;-81
2023/07/30 05:36:50;;;;;;;7.30;2.50;;;;;;;;;;106113;1273;22561;-80
2023/07/30 05:39:17;;;;;;;7.00;2.10;;;;;;;;;;106407;1284;24257;-76
2023/07/30 05:41:44;;;;;;;5.00;2.00;;;;;;;;;;106385;1284;25408;-77
2023/07/30 05:44:10;;;;;;;6.30;2.20;;;;;;;;;;106360;1284;25230;-75
2023/07/30 05:46:37;;;;;;;6.20;2.10;;;;;;;;;;106367;1273;24365;-81
2023/07/30 05:49:04;;;;;;;5.60;2.10;;;;;;;;;;106429;1284;24250;-75
2023/07/30 05:51:30;;;;;;;4.50;2.20;;;;;;;;;;106390;1282;25328;-79
2023/07/30 05:53:57;;;;;;;6.60;1.90;;;;;;;;;;106434;1284;22538;-79
2023/07/30 05:56:24;;;;;;;5.20;2.10;;;;;;;;;;106370;1270;25347;-77
2023/07/30 05:58:50;;;;;;;6.10;1.90;;;;;;;;;;106419;1284;26495;-77
2023/07/30 06:01:19;;;;;;;7.20;2.80;;;;;;;;;;106384;1284;24228;-80
2023/07/30 06:03:46;;;;;;;8.60;3.70;;;;;;;;;;106395;1284;22791;-80
2023/07/30 06:06:12;;;;;;;7.00;3.10;;;;;;;;;;106385;1284;23040;-75
2023/07/30 06:08:39;;;;;;;5.00;2.10;;;;;;;;;;106372;1284;22497;-79
2023/07/30 06:11:06;;;;;;;3.80;1.80;;;;;;;;;;106310;1285;24212;-81
2023/07/30 06:13:33;;;;;;;3.90;1.70;;;;;;;;;;106076;1285;25478;-75
2023/07/30 06:15:59;;;;;;;5.60;1.90;;;;;;;;;;106339;1267;24180;-80
2023/07/30 06:18:26;;;;;;;6.10;2.10;;;;;;;;;;106368;1285;22575;-79
2023/07/30 06:20:53;;;;;;;5.60;2.20;;;;;;;;;;106068;1285;22549;-74
2023/07/30 06:23:20;;;;;;;5.90;2.10;;;;;;;;;;106298;1285;25334;-78
2023/07/30 06:25:46;;;;;;;4.80;2.10;;;;;;;;;;106997;1276;24262;-74
2023/07/30 06:28:13;;;;;;;4.30;1.90;;;;;;;;;;106839;1260;24355;-76
2023/07/30 06:30:40;;;;;;;4.70;1.90;;;;;;;;;;106904;1276;24227;-81
2023/07/30 06:33:07;;;;;;;4.20;2.10;;;;;;;;;;107012;1276;22524;-81
2023/07/30 06:35:34;;;;;;;4.70;2.00;;;;;;;;;;106886;1276;22527;-81
2023/07/30 06:38:01;;;;;;;4.50;1.80;;;;;;;;;;106868;1268;25552;-82
2023/07/30 06:40:28;;;;;;;4.70;2.00;;;;;;;;;;106865;1275;22527;-78
2023/07/30 06:42:54;;;;;;;4.10;2.00;;;;;;;;;;106878;1276;25227;-78
2023/07/30 06:45:21;;;;;;;4.00;2.00;;;;;;;;;;107042;1264;22619;-77
2023/07/30 06:47:48;;;;;;;5.90;2.20;;;;;;;;;;106866;1259;22524;-81
2023/07/30 06:50:15;;;;;;;3.60;2.00;;;;;;;;;;106899;1254;22535;-76
2023/07/30 06:52:41;;;;;;;3.50;1.90;;;;;;;;;;107020;1275;25241;-79
2023/07/30 06:55:08;;;;;;;4.60;1.90;;;;;;;;;;107183;1275;22528;-74
2023/07/30 06:57:35;;;;;;;3.70;1.80;;;;;;;;;;106877;1272;22543;-77
2023/07/30 07:00:03;;;;;;;3.50;1.70;;;;;;;;;;106988;1274;22541;-81
2023/07/30 07:02:30;;;;;;;4.20;2.10;;;;;;;;;;107018;1275;24252;-77
2023/07/30 07:04:56;;;;;;;4.40;2.20;;;;;;;;;;106997;1275;22533;-78
2023/07/30 07:07:23;;;;;;;5.40;2.10;;;;;;;;;;107076;1261;25325;-74
2023/07/30 07:09:50;;;;;;;6.30;2.10;;;;;;;;;;106817;1263;22532;-79
2023/07/30 07:12:17;;;;;;;4.40;2.10;;;;;;;;;;106979;1273;22514;-79
2023/07/30 07:14:44;;;;;;;4.40;2.20;;;;;;;;;;106783;1275;25303;-74
2023/07/30 07:17:10;;;;;;;5.80;1.90;;;;;;;;;;106773;1275;22580;-77
2023/07/30 07:19:37;;;;;;;4.60;2.10;;;;;;;;;;107036;1275;22647;-79
2023/07/30 07:22:04;;;;;;;6.00;2.10;;;;;;;;;;107118;1275;22524;-81
2023/07/30 07:24:31;;;;;;;4.30;2.00;;;;;;;;;;107046;1275;22524;-80
2023/07/30 07:26:58;;;;;;;5.50;2.10;;;;;;;;;;106892;1275;22525;-77
2023/07/30 07:29:25;;;;;;;4.80;2.00;;;;;;;;;;107106;1261;22526;-75
2023/07/30 07:31:53;;;;;;;4.00;2.00;;;;;;;;;;107007;1275;22519;-78
2023/07/30 07:34:21;;;;;;;4.00;1.80;;;;;;;;;;107026;1275;22517;-80
2023/07/30 07:36:48;;;;;;;3.90;2.00;;;;;;;;;;107007;1272;25325;-79
2023/07/30 07:39:18;;;;;;;4.70;2.10;;;;;;;;;;106919;1257;25359;-76
2023/07/30 07:41:45;;;;;;;3.30;1.70;;;;;;;;;;106903;1267;24195;-76
2023/07/30 07:44:12;;;;;;;5.80;2.40;;;;;;;;;;107060;1272;25339;-75
2023/07/30 07:46:39;;;;;;;4.60;2.30;;;;;;;;;;106908;1276;22759;-80
2023/07/30 07:49:08;;;;;;;4.50;2.00;;;;;;;;;;107043;1258;24240;-78
2023/07/30 07:51:35;;;;;;;4.00;1.80;;;;;;;;;;106992;1274;25268;-77
2023/07/30 07:54:03;;;;;;;4.50;2.00;;;;;;;;;;107036;1273;22524;-75
2023/07/30 07:56:32;;;;;;;3.50;1.90;;;;;;;;;;106966;1275;22541;-76
2023/07/30 07:59:01;;;;;;;3.10;1.80;;;;;;;;;;107044;1257;25468;-80
2023/07/30 08:01:28;;;;;;;4.40;2.30;;;;;;;;;;107064;1275;24240;-76
2023/07/30 08:03:58;;;;;;;3.60;1.80;;;;;;;;;;106950;1269;22524;-77
2023/07/30 08:06:25;;;;;;;3.20;1.90;;;;;;;;;;106948;1267;22634;-75
2023/07/30 08:08:52;;;;;;;5.60;1.80;;;;;;;;;;106988;1268;22533;-80
2023/07/30 08:11:19;;;;;;;3.20;1.90;;;;;;;;;;106913;1269;25460;-77
2023/07/30 08:13:46;;;;;;;3.30;1.80;;;;;;;;;;106752;1267;22621;-75
2023/07/30 08:16:13;;;;;;;4.60;2.00;;;;;;;;;;106779;1267;25338;-74
2023/07/30 08:18:40;;;;;;;4.90;2.00;;;;;;;;;;106741;1258;22515;-74
2023/07/30 08:21:09;;;;;;;3.50;1.90;;;;;;;;;;106800;1267;25363;-78
2023/07/30 08:23:37;;;;;;;3.20;1.80;;;;;;;;;;106973;1273;22527;-78
2023/07/30 08:26:04;;;;;;;4.30;2.10;;;;;;;;;;106874;1276;22530;-81
2023/07/30 08:28:31;;;;;;;3.80;2.10;;;;;;;;;;107045;1254;24243;-80
2023/07/30 08:31:02;;;;;;;5.30;2.20;;;;;;;;;;106965;1270;22492;-81
2023/07/30 08:33:30;;;;;;;5.20;2.10;;;;;;;;;;106909;1270;25268;-82
2023/07/30 08:35:58;;;;;;;4.80;2.20;;;;;;;;;;107104;1272;25236;-79
2023/07/30 08:38:25;;;;;;;3.70;2.20;;;;;;;;;;107119;1275;24219;-75
2023/07/30 08:41:01;;;;;;;5.10;2.00;;;;;;;;;;106994;1264;22536;-82
2023/07/30 08:43:28;;;;;;;3.60;1.80;;;;;;;;;;107131;1275;22522;-79
2023/07/30 08:45:55;;;;;;;3.00;1.70;;;;;;;;;;107054;1275;22536;-76
2023/07/30 08:48:22;;;;;;;3.60;2.00;;;;;;;;;;106953;1272;24215;-75
2023/07/30 08:50:59;;;;;;;4.40;1.70;;;;;;;;;;107066;1266;25366;-78
2023/07/30 08:53:26;;;;;;;4.30;1.80;;;;;;;;;;106919;1274;22533;-77
2023/07/30 08:55:55;;;;;;;4.80;1.80;;;;;;;;;;106894;1267;22479;-76
2023/07/30 08:58:23;;;;;;;4.40;1.90;;;;;;;;;;106961;1270;24186;-75
2023/07/30 09:00:51;;;;;;;3.70;2.00;;;;;;;;;;107037;1267;25333;-75
2023/07/30 09:03:19;;;;;;;3.10;1.80;;;;;;;;;;107075;1272;22637;-77
2023/07/30 09:05:50;;;;;;;4.10;2.00;;;;;;;;;;107087;1267;22529;-76
2023/07/30 09:08:17;;;;;;;5.50;2.30;;;;;;;;;;107010;1267;25545;-75
2023/07/30 09:10:44;;;;;;;5.60;2.00;;;;;;;;;;107015;1257;22526;-75
2023/07/30 09:13:20;;;;;;;3.30;2.00;;;;;;;;;;106942;1271;22518;-80
2023/07/30 09:15:48;;;;;;;3.70;1.90;;;;;;;;;;106985;1267;25287;-76
2023/07/30 09:18:18;;;;;;;3.40;1.80;;;;;;;;;;107016;1273;25473;-80
2023/07/30 09:20:46;;;;;;;3.80;1.90;;;;;;;;;;107046;1256;24059;-76
2023/07/30 09:23:13;;;;;;;3.90;2.10;;;;;;;;;;106963;1270;22538;-82
2023/07/30 09:25:40;;;;;;;3.00;1.80;;;;;;;;;;106940;1270;24374;-76
2023/07/30 09:28:07;;;;;;;3.50;2.10;;;;;;;;;;106967;1273;25355;-77
2023/07/30 09:30:34;;;;;;;3.70;2.00;;;;;;;;;;107050;1258;24371;-78
2023/07/30 09:33:01;;;;;;;3.50;2.00;;;;;;;;;;107016;1276;24200;-80
2023/07/30 09:35:27;;;;;;;3.20;1.60;;;;;;;;;;107012;1276;22612;-79
2023/07/30 09:37:59;;;;;;;3.80;1.90;;;;;;;;;;106884;1276;25227;-74
2023/07/30 09:40:35;;;;;;;3.70;2.00;;;;;;;;;;107094;1256;22527;-75
2023/07/30 09:43:03;;;;;;;4.20;2.00;;;;;;;;;;107021;1267;22530;-79
2023/07/30 09:45:33;;;;;;;5.20;1.90;;;;;;;;;;107155;1275;22552;-80
2023/07/30 09:48:02;;;;;;;2.90;1.50;;;;;;;;;;107157;1275;25343;-79
2023/07/30 09:50:29;;;;;;;4.10;1.90;;;;;;;;;;106946;1271;22541;-80
2023/07/30 09:52:58;;;;;;;3.80;1.80;;;;;;;;;;107114;1269;24358;-77
2023/07/30 09:55:25;;;;;;;4.30;2.20;;;;;;;;;;106956;1269;25318;-77
2023/07/30 09:57:52;;;;;;;3.00;1.90;;;;;;;;;;107067;1273;22734;-78
2023/07/30 10:00:19;;;;;;;3.70;2.00;;;;;;;;;;107139;1254;22520;-81
2023/07/30 10:02:46;;;;;;;4.30;2.10;;;;;;;;;;107017;1270;22779;-75
2023/07/30 10:05:15;;;;;;;3.50;1.70;;;;;;;;;;106872;1272;26524;-79
2023/07/30 10:07:44;;;;;;;3.40;1.90;;;;;;;;;;107100;1269;25338;-81
2023/07/30 10:10:14;;;;;;;4.30;2.20;;;;;;;;;;107160;1267;23121;-77
2023/07/30 10:12:44;;;;;;;3.80;2.00;;;;;;;;;;106959;1257;22518;-76
2023/07/30 10:15:11;;;;;;;3.60;2.00;;;;;;;;;;106911;1275;24209;-83
2023/07/30 10:17:38;;;;;;;4.90;1.80;;;;;;;;;;106967;1273;24351;-86
2023/07/30 10:20:25;;;;;;;3.80;2.10;;;;;;;;;;106788;1276;22536;-79
2023/07/30 10:22:55;;;;;;;4.00;2.00;;;;;;;;;;106890;1272;24078;-78
2023/07/30 10:25:26;;;;;;;3.40;1.90;;;;;;;;;;107076;1267;24338;-78
2023/07/30 10:27:53;;;;;;;3.50;1.50;;;;;;;;;;107118;1272;24559;-81
2023/07/30 10:30:20;;;;;;;4.50;1.80;;;;;;;;;;106861;1275;22639;-83
2023/07/30 10:32:59;;;;;;;4.10;1.80;;;;;;;;;;106886;1259;22504;-79
2023/07/30 10:35:37;;;;;;;3.50;1.90;;;;;;;;;;106867;1275;22480;-83
2023/07/30 10:38:17;;;;;;;4.50;1.90;;;;;;;;;;106952;1267;22529;-78
2023/07/30 10:41:03;;;;;;;3.40;2.00;;;;;;;;;;106939;1267;25291;-77
2023/07/30 10:43:33;;;;;;;4.30;1.80;;;;;;;;;;107091;1275;25344;-79
2023/07/30 10:46:01;;;;;;;3.90;2.00;;;;;;;;;;106938;1275;22528;-81
2023/07/30 10:48:35;;;;;;;4.20;2.00;;;;;;;;;;107038;1272;22555;-79
2023/07/30 10:51:04;;;;;;;4.50;2.00;;;;;;;;;;107087;1270;25223;-83
2023/07/30 10:53:32;;;;;;;4.00;2.00;;;;;;;;;;106901;1260;22631;-77
2023/07/30 10:56:09;;;;;;;4.60;2.20;;;;;;;;;;107040;1273;22528;-77
2023/07/30 10:58:39;;;;;;;5.90;2.50;;;;;;;;;;107038;1275;25320;-81
2023/07/30 11:01:07;;;;;;;8.90;3.10;;;;;;;;;;106963;1275;22484;-86
2023/07/30 11:03:37;;;;;;;8.30;2.90;;;;;;;;;;107159;1257;24260;-81
2023/07/30 11:06:04;;;;;;;8.00;3.10;;;;;;;;;;106916;1275;23895;-81
2023/07/30 11:08:38;;;;;;;7.90;2.30;;;;;;;;;;107106;1275;25233;-83
2023/07/30 11:11:06;;;;;;;6.50;2.40;;;;;;;;;;107116;1276;25268;-78
2023/07/30 11:13:37;;;;;;;5.50;2.30;;;;;;;;;;107111;1257;22520;-81
2023/07/30 11:16:06;;;;;;;5.20;2.30;;;;;;;;;;106929;1276;25667;-79
2023/07/30 11:18:36;;;;;;;4.90;2.40;;;;;;;;;;106949;1276;25278;-83
2023/07/30 11:21:04;;;;;;;5.50;2.30;;;;;;;;;;107116;1275;22866;-84
2023/07/30 11:23:32;;;;;;;5.30;2.70;;;;;;;;;;107098;1253;24225;-78
2023/07/30 11:26:03;;;;;;;4.60;2.70;;;;;;;;;;106974;1270;22588;-79
2023/07/30 11:28:33;;;;;;;5.50;2.60;;;;;;;;;;106818;1276;22533;-77
2023/07/30 11:31:04;;;;;;;5.60;3.10;;;;;;;;;;106850;1275;24353;-76
2023/07/30 11:33:31;;;;;;;5.60;2.60;;;;;;;;;;106487;1276;22540;-82
2023/07/30 11:36:00;;;;;;;6.00;2.40;;;;;;;;;;106903;1277;22570;-77
2023/07/30 11:38:27;;;;;;;4.70;2.50;;;;;;;;;;106715;1277;22536;-81
2023/07/30 11:40:58;;;;;;;5.50;2.60;;;;;;;;;;106844;1277;25287;-77
2023/07/30 11:43:25;;;;;;;4.80;2.60;;;;;;;;;;106803;1253;24177;-84
2023/07/30 11:46:12;;;;;;;4.80;2.40;;;;;;;;;;106960;1276;23444;-80
2023/07/30 11:48:40;;;;;;;4.20;2.10;;;;;;;;;;106925;1275;22550;-82
2023/07/30 11:51:07;;;;;;;5.30;2.60;;;;;;;;;;106965;1275;25670;-79
2023/07/30 11:53:47;;;;;;;5.10;2.20;;;;;;;;;;106943;1275;22541;-81
2023/07/30 11:56:18;;;;;;;4.10;2.20;;;;;;;;;;106881;1276;24550;-78
2023/07/30 11:58:46;;;;;;;3.60;2.00;;;;;;;;;;106901;1275;25080;-76
2023/07/30 12:01:14;;;;;;;6.10;2.50;;;;;;;;;;107140;1271;22766;-84
2023/07/30 12:03:44;;;;;;;5.30;2.40;;;;;;;;;;106866;1261;24200;-81
2023/07/30 12:06:11;;;;;;;5.10;2.80;;;;;;;;;;107049;1267;22524;-76
2023/07/30 12:08:38;;;;;;;3.60;2.10;;;;;;;;;;107197;1275;25386;-79
2023/07/30 12:11:07;;;;;;;3.50;2.10;;;;;;;;;;107046;1269;24298;-76
2023/07/30 12:13:43;;;;;;;4.30;2.40;;;;;;;;;;107005;1256;25372;-78
2023/07/30 12:16:11;;;;;;;5.20;2.70;;;;;;;;;;107094;1272;22598;-82
2023/07/30 12:18:39;;;;;;;4.60;2.40;;;;;;;;;;106885;1275;22530;-85
2023/07/30 12:21:07;;;;;;;4.40;2.40;;;;;;;;;;107003;1276;24214;-77
2023/07/30 12:23:34;;;;;;;4.80;2.20;;;;;;;;;;106957;1253;24360;-85
2023/07/30 12:26:04;;;;;;;4.50;2.50;;;;;;;;;;106935;1275;24336;-83
2023/07/30 12:28:32;;;;;;;4.60;2.60;;;;;;;;;;106946;1272;22523;-78
2023/07/30 12:31:02;;;;;;;4.50;2.40;;;;;;;;;;106952;1267;22524;-83
2023/07/30 12:33:35;;;;;;;3.80;2.20;;;;;;;;;;106965;1253;25332;-78
2023/07/30 12:36:02;;;;;;;4.40;2.40;;;;;;;;;;106786;1270;25525;-80
2023/07/30 12:38:29;;;;;;;4.60;2.50;;;;;;;;;;106843;1269;22530;-80
2023/07/30 12:40:56;;;;;;;3.70;2.10;;;;;;;;;;106904;1269;25181;-77
2023/07/30 12:43:24;;;;;;;4.70;2.00;;;;;;;;;;106849;1276;24369;-82
2023/07/30 12:45:51;;;;;;;4.90;2.40;;;;;;;;;;106824;1275;24373;-80
2023/07/30 12:48:19;;;;;;;4.50;2.30;;;;;;;;;;106837;1267;22539;-76
2023/07/30 12:50:46;;;;;;;4.60;2.40;;;;;;;;;;106916;1273;22523;-76
2023/07/30 12:53:12;;;;;;;4.60;2.50;;;;;;;;;;107128;1269;22568;-82
2023/07/30 12:55:39;;;;;;;5.00;2.60;;;;;;;;;;106876;1259;22544;-83
2023/07/30 12:58:06;;;;;;;4.50;2.10;;;;;;;;;;107110;1275;22579;-84
2023/07/30 13:00:34;;;;;;;5.70;2.20;;;;;;;;;;107093;1275;22519;-83
2023/07/30 13:03:02;;;;;;;4.00;2.00;;;;;;;;;;107145;1275;24240;-76
2023/07/30 13:05:29;;;;;;;4.10;2.20;;;;;;;;;;107075;1256;24265;-80
2023/07/30 13:07:56;;;;;;;3.40;1.70;;;;;;;;;;106926;1275;22520;-78
2023/07/30 13:10:23;;;;;;;3.30;1.90;;;;;;;;;;107130;1275;22523;-82
2023/07/30 13:12:50;;;;;;;3.30;1.80;;;;;;;;;;106920;1275;24217;-76
2023/07/30 13:15:16;;;;;;;4.40;2.20;;;;;;;;;;106966;1271;24246;-78
2023/07/30 13:17:43;;;;;;;4.00;2.30;;;;;;;;;;107067;1275;25271;-80
2023/07/30 13:20:10;;;;;;;3.20;2.10;;;;;;;;;;107185;1275;22598;-82
2023/07/30 13:22:37;;;;;;;3.50;2.00;;;;;;;;;;107085;1275;22545;-77
2023/07/30 13:25:04;;;;;;;3.10;1.70;;;;;;;;;;107314;1253;22585;-76
2023/07/30 13:27:30;;;;;;;3.10;1.70;;;;;;;;;;107134;1275;25368;-79
2023/07/30 13:29:57;;;;;;;3.40;1.70;;;;;;;;;;107105;1275;22600;-78
2023/07/30 13:32:24;;;;;;;3.40;1.60;;;;;;;;;;107003;1275;24242;-83
2023/07/30 13:34:51;;;;;;;3.50;1.90;;;;;;;;;;107068;1275;22537;-82
2023/07/30 13:37:18;;;;;;;3.40;1.90;;;;;;;;;;106860;1275;22538;-78
2023/07/30 13:39:44;;;;;;;4.30;2.40;;;;;;;;;;107048;1275;22539;-84
2023/07/30 13:42:11;;;;;;;4.30;2.60;;;;;;;;;;107112;1275;24350;-79
2023/07/30 13:44:38;;;;;;;4.20;2.50;;;;;;;;;;107119;1271;22531;-75
2023/07/30 13:47:05;;;;;;;5.00;2.50;;;;;;;;;;107116;1257;22523;-83
2023/07/30 13:49:32;;;;;;;5.10;2.60;;;;;;;;;;107122;1275;24237;-82
2023/07/30 13:51:59;;;;;;;5.70;2.90;;;;;;;;;;107152;1275;25328;-79
2023/07/30 13:54:26;;;;;;;5.20;2.90;;;;;;;;;;107136;1275;22482;-80
2023/07/30 13:56:53;;;;;;;4.20;2.30;;;;;;;;;;106892;1259;23895;-78
2023/07/30 13:59:19;;;;;;;5.80;2.80;;;;;;;;;;107174;1275;24208;-77
2023/07/30 14:01:46;;;;;;;4.60;2.80;;;;;;;;;;106914;1275;25288;-77
2023/07/30 14:04:13;;;;;;;5.00;3.00;;;;;;;;;;106937;1275;25275;-79
2023/07/30 14:06:39;;;;;;;4.90;2.60;;;;;;;;;;107092;1269;22646;-78
2023/07/30 14:09:06;;;;;;;4.60;2.60;;;;;;;;;;107101;1275;22518;-77
2023/07/30 14:11:33;;;;;;;4.40;2.60;;;;;;;;;;107105;1275;23931;-83
2023/07/30 14:14:00;;;;;;;5.10;2.90;;;;;;;;;;107017;1275;22521;-81
2023/07/30 14:16:27;;;;;;;5.50;3.20;;;;;;;;;;106934;1258;22531;-76
2023/07/30 14:18:53;;;;;;;5.30;3.30;;;;;;;;;;107109;1263;21896;-79
2023/07/30 14:21:20;;;;;;;5.50;3.40;;;;;;;;;;107192;1275;22545;-76
2023/07/30 14:23:48;;;;;;;6.30;3.70;;;;;;;;;;107163;1275;22523;-77
2023/07/30 14:26:14;;;;;;;5.30;3.20;;;;;;;;;;107153;1275;22527;-75
2023/07/30 14:28:41;;;;;;;7.50;3.90;;;;;;;;;;107140;1275;22571;-83
2023/07/30 14:31:08;;;;;;;6.10;4.10;;;;;;;;;;107045;1275;22527;-82
2023/07/30 14:33:36;;;;;;;7.10;4.10;;;;;;;;;;107097;1275;25350;-80
2023/07/30 14:36:03;;;;;;;6.90;3.90;;;;;;;;;;107125;1254;22767;-83
2023/07/30 14:38:33;;;;;;;6.60;3.90;;;;;;;;;;106904;1275;22598;-76
2023/07/30 14:41:02;;;;;;;6.30;3.80;;;;;;;;;;107082;1275;22619;-80